createdAt,value
2023-04-26T00:02:00.921Z,4.90
2023-04-26T00:04:29.735Z,5.43
2023-04-26T00:06:57.154Z,5.47
2023-04-26T00:09:28.813Z,5.27
2023-04-26T00:11:55.771Z,5.30
2023-04-26T00:14:22.787Z,5.00
2023-04-26T00:16:50.135Z,5.57
2023-04-26T00:19:20.122Z,6.10
2023-04-26T00:21:46.867Z,5.77
2023-04-26T00:24:13.710Z,5.03
2023-04-26T00:26:43.022Z,5.40
2023-04-26T00:29:14.624Z,5.73
2023-04-26T00:31:41.541Z,5.40
2023-04-26T00:34:08.465Z,5.27
2023-04-26T00:36:35.513Z,6.03
2023-04-26T00:39:02.979Z,5.83
2023-04-26T00:41:30.142Z,5.50
2023-04-26T00:43:59.372Z,5.20
2023-04-26T00:46:26.712Z,5.10
2023-04-26T00:48:56.266Z,5.53
2023-04-26T00:51:23.122Z,4.80
2023-04-26T00:53:50.040Z,5.03
2023-04-26T00:56:17.013Z,5.93
2023-04-26T00:58:43.912Z,5.80
2023-04-26T01:01:15.563Z,5.60
2023-04-26T01:03:47.079Z,5.87
2023-04-26T01:06:14.332Z,5.30
2023-04-26T01:08:43.948Z,6.07
2023-04-26T01:11:11.066Z,6.03
2023-04-26T01:13:38.839Z,5.80
2023-04-26T01:16:08.241Z,6.20
2023-04-26T01:18:36.132Z,6.73
2023-04-26T01:21:05.220Z,6.60
2023-04-26T01:23:32.332Z,6.50
2023-04-26T01:26:01.853Z,6.60
2023-04-26T01:28:28.854Z,5.60
2023-04-26T01:30:55.736Z,6.17
2023-04-26T01:33:22.727Z,6.13
2023-04-26T01:35:49.833Z,5.70
2023-04-26T01:38:21.976Z,6.60
2023-04-26T01:40:48.779Z,6.43
2023-04-26T01:43:16.692Z,5.63
2023-04-26T01:45:49.584Z,5.73
2023-04-26T01:48:16.852Z,6.07
2023-04-26T01:50:43.868Z,6.70
2023-04-26T01:53:10.689Z,6.03
2023-04-26T01:55:37.458Z,5.57
2023-04-26T01:58:04.323Z,5.60
2023-04-26T02:00:31.307Z,5.87
2023-04-26T02:03:01.139Z,6.23
2023-04-26T02:05:28.341Z,6.00
2023-04-26T02:07:55.355Z,6.47
2023-04-26T02:10:22.198Z,6.17
2023-04-26T02:12:49.166Z,5.80
2023-04-26T02:15:22.085Z,6.17
2023-04-26T02:17:49.906Z,7.13
2023-04-26T02:20:16.973Z,6.13
2023-04-26T02:22:43.918Z,6.10
2023-04-26T02:25:13.379Z,5.67
2023-04-26T02:27:40.308Z,6.07
2023-04-26T02:30:11.782Z,5.77
2023-04-26T02:32:38.867Z,5.43
2023-04-26T02:35:06.206Z,5.87
2023-04-26T02:37:34.291Z,6.57
2023-04-26T02:40:01.256Z,5.97
2023-04-26T02:42:28.262Z,6.47
2023-04-26T02:44:57.905Z,5.87
2023-04-26T02:47:27.335Z,6.53
2023-04-26T02:49:57.233Z,6.60
2023-04-26T02:52:24.036Z,6.30
2023-04-26T02:54:51.270Z,6.10
2023-04-26T02:57:21.089Z,5.90
2023-04-26T02:59:47.883Z,5.37
2023-04-26T03:02:15.216Z,5.97
2023-04-26T03:04:42.200Z,5.77
2023-04-26T03:07:09.838Z,5.63
2023-04-26T03:09:41.539Z,5.87
2023-04-26T03:12:09.622Z,5.60
2023-04-26T03:14:37.435Z,5.93
2023-04-26T03:17:07.965Z,5.97
2023-04-26T03:19:38.083Z,5.80
2023-04-26T03:22:05.130Z,6.17
2023-04-26T03:24:34.355Z,5.77
2023-04-26T03:27:01.332Z,6.80
2023-04-26T03:29:28.252Z,6.93
2023-04-26T03:31:55.692Z,6.13
2023-04-26T03:34:22.538Z,6.23
2023-04-26T03:36:49.232Z,6.17
2023-04-26T03:39:18.562Z,6.97
2023-04-26T03:41:45.457Z,7.27
2023-04-26T03:44:12.593Z,6.90
2023-04-26T03:46:39.345Z,7.67
2023-04-26T03:49:06.352Z,6.77
2023-04-26T03:51:33.224Z,7.03
2023-04-26T03:54:00.128Z,5.93
2023-04-26T03:56:27.059Z,7.03
2023-04-26T03:58:54.158Z,7.93
2023-04-26T04:01:21.320Z,7.30
2023-04-26T04:03:48.375Z,6.90
2023-04-26T04:06:16.945Z,7.43
2023-04-26T04:08:43.848Z,7.00
2023-04-26T04:11:12.854Z,7.63
2023-04-26T04:13:39.562Z,7.20
2023-04-26T04:16:07.218Z,6.93
2023-04-26T04:18:34.206Z,7.80
2023-04-26T04:21:01.028Z,6.63
2023-04-26T04:23:28.096Z,6.67
2023-04-26T04:25:54.879Z,7.97
2023-04-26T04:28:23.315Z,7.10
2023-04-26T04:30:50.314Z,7.50
2023-04-26T04:33:17.936Z,7.60
2023-04-26T04:35:45.273Z,7.20
2023-04-26T04:38:14.380Z,7.13
2023-04-26T04:40:45.943Z,7.37
2023-04-26T04:43:13.247Z,6.67
2023-04-26T04:45:39.898Z,7.50
2023-04-26T04:48:07.176Z,7.10
2023-04-26T04:50:37.268Z,7.00
2023-04-26T04:53:06.652Z,8.00
2023-04-26T04:55:36.783Z,6.90
2023-04-26T04:58:04.731Z,7.43
2023-04-26T05:00:31.488Z,7.87
2023-04-26T05:03:00.516Z,7.47
2023-04-26T05:05:27.483Z,6.60
2023-04-26T05:07:54.402Z,7.07
2023-04-26T05:10:23.769Z,7.45
2023-04-26T05:12:50.743Z,6.97
2023-04-26T05:15:17.968Z,6.97
2023-04-26T05:17:47.218Z,7.30
2023-04-26T05:20:15.046Z,7.35
2023-04-26T05:22:41.953Z,6.70
2023-04-26T05:25:09.601Z,7.03
2023-04-26T05:27:38.011Z,7.55
2023-04-26T05:30:08.781Z,6.60
2023-04-26T05:32:39.607Z,6.82
2023-04-26T05:35:09.243Z,7.28
2023-04-26T05:37:40.110Z,7.00
2023-04-26T05:40:09.025Z,7.25
2023-04-26T05:42:37.371Z,7.57
2023-04-26T05:45:04.746Z,7.20
2023-04-26T05:47:31.831Z,7.32
2023-04-26T05:50:01.292Z,7.30
2023-04-26T05:52:30.324Z,6.60
2023-04-26T05:54:57.086Z,7.53
2023-04-26T05:57:24.081Z,6.78
2023-04-26T05:59:50.991Z,7.10
2023-04-26T06:02:17.754Z,7.88
2023-04-26T06:04:46.956Z,7.10
2023-04-26T06:07:14.008Z,7.20
2023-04-26T06:09:41.011Z,7.18
2023-04-26T06:12:10.432Z,6.57
2023-04-26T06:14:39.489Z,6.20
2023-04-26T06:17:06.344Z,5.72
2023-04-26T06:19:33.254Z,5.85
2023-04-26T06:22:00.212Z,6.18
2023-04-26T06:24:27.051Z,6.28
2023-04-26T06:26:54.032Z,5.78
2023-04-26T06:29:21.938Z,5.25
2023-04-26T06:31:48.806Z,5.13
2023-04-26T06:34:17.921Z,5.57
2023-04-26T06:36:47.472Z,5.10
2023-04-26T06:39:14.269Z,5.38
2023-04-26T06:41:41.266Z,5.47
2023-04-26T06:44:10.717Z,5.72
2023-04-26T06:46:39.603Z,4.97
2023-04-26T06:49:09.026Z,4.55
2023-04-26T06:51:38.230Z,4.50
2023-04-26T06:54:07.658Z,4.28
2023-04-26T06:56:34.292Z,4.47
2023-04-26T06:59:05.594Z,4.68
2023-04-26T07:01:33.960Z,4.93
2023-04-26T07:04:04.952Z,4.65
2023-04-26T07:06:34.145Z,4.78
2023-04-26T07:09:02.878Z,5.07
2023-04-26T07:11:29.950Z,6.07
2023-04-26T07:13:59.319Z,5.30
2023-04-26T07:16:27.609Z,5.82
2023-04-26T07:18:58.084Z,5.05
2023-04-26T07:21:26.939Z,5.30
2023-04-26T07:23:57.237Z,5.25
2023-04-26T07:26:25.082Z,4.80
2023-04-26T07:28:52.769Z,5.57
2023-04-26T07:31:22.582Z,4.45
2023-04-26T07:33:51.787Z,4.80
2023-04-26T07:36:22.438Z,4.25
2023-04-26T07:38:50.724Z,3.60
2023-04-26T07:41:17.863Z,3.80
2023-04-26T07:43:46.933Z,3.75
2023-04-26T07:46:13.566Z,3.63
2023-04-26T07:48:42.586Z,2.90
2023-04-26T07:51:12.576Z,3.45
2023-04-26T07:53:40.621Z,2.92
2023-04-26T07:56:08.265Z,2.42
2023-04-26T07:58:36.300Z,2.03
2023-04-26T08:01:05.778Z,2.13
2023-04-26T08:03:33.315Z,2.47
2023-04-26T08:06:00.550Z,1.92
2023-04-26T08:08:27.519Z,2.10
2023-04-26T08:10:54.581Z,2.80
2023-04-26T08:13:23.975Z,2.00
2023-04-26T08:15:53.851Z,1.75
2023-04-26T08:18:20.618Z,1.60
2023-04-26T08:20:47.320Z,1.60
2023-04-26T08:23:14.363Z,1.30
2023-04-26T08:25:43.178Z,1.30
2023-04-26T08:28:09.787Z,1.10
2023-04-26T08:30:38.571Z,1.33
2023-04-26T08:33:07.467Z,1.20
2023-04-26T08:35:34.036Z,1.70
2023-04-26T08:38:01.072Z,1.30
2023-04-26T08:40:27.895Z,1.30
2023-04-26T08:42:54.579Z,1.38
2023-04-26T08:45:21.690Z,1.15
2023-04-26T08:47:58.864Z,1.23
2023-04-26T08:50:27.776Z,1.20
2023-04-26T08:52:54.469Z,1.50
2023-04-26T08:55:21.965Z,1.40
2023-04-26T08:57:50.122Z,1.30
2023-04-26T09:00:18.212Z,1.02
2023-04-26T09:02:51.760Z,1.10
2023-04-26T09:05:26.820Z,1.33
2023-04-26T09:08:06.786Z,1.50
2023-04-26T09:10:33.452Z,1.60
2023-04-26T09:13:00.191Z,1.48
2023-04-26T09:15:28.293Z,1.50
2023-04-26T09:17:57.228Z,1.42
2023-04-26T09:20:23.862Z,1.35
2023-04-26T09:22:54.859Z,1.08
2023-04-26T09:25:31.664Z,1.13
2023-04-26T09:28:02.088Z,1.63
2023-04-26T09:30:38.042Z,1.20
2023-04-26T09:33:06.692Z,1.15
2023-04-26T09:35:35.712Z,1.15
2023-04-26T09:38:13.851Z,1.25
2023-04-26T09:40:51.031Z,1.02
2023-04-26T09:43:18.766Z,1.38
2023-04-26T09:45:57.035Z,1.30
2023-04-26T09:48:26.060Z,1.20
2023-04-26T09:51:19.180Z,1.10
2023-04-26T09:53:47.714Z,1.35
2023-04-26T09:56:23.709Z,1.20
2023-04-26T09:58:58.188Z,1.40
2023-04-26T10:01:26.662Z,1.42
2023-04-26T10:03:53.595Z,1.50
2023-04-26T10:06:20.362Z,1.55
2023-04-26T10:08:47.022Z,1.10
2023-04-26T10:11:14.178Z,1.38
2023-04-26T10:13:41.910Z,1.60
2023-04-26T10:16:12.411Z,1.55
2023-04-26T10:18:39.341Z,1.20
2023-04-26T10:21:28.973Z,1.45
2023-04-26T10:23:59.406Z,1.50
2023-04-26T10:26:57.343Z,1.23
2023-04-26T10:29:25.757Z,2.80
2023-04-26T10:32:04.660Z,5.45
2023-04-26T10:34:35.341Z,1.60
2023-04-26T10:37:08.983Z,1.50
2023-04-26T10:39:36.883Z,1.40
2023-04-26T10:42:26.522Z,1.52
2023-04-26T10:44:57.545Z,3.70
2023-04-26T10:47:30.730Z,4.22
2023-04-26T10:50:15.587Z,3.42
2023-04-26T10:53:02.342Z,2.20
2023-04-26T10:55:39.741Z,1.75
2023-04-26T10:58:32.975Z,1.63
2023-04-26T11:01:16.458Z,1.50
2023-04-26T11:04:04.087Z,1.90
2023-04-26T11:06:51.210Z,1.70
2023-04-26T11:09:41.801Z,2.08
2023-04-26T11:12:13.754Z,1.77
2023-04-26T11:14:45.553Z,2.08
2023-04-26T11:17:15.527Z,1.90
2023-04-26T11:19:42.320Z,1.98
2023-04-26T11:22:11.407Z,1.75
2023-04-26T11:24:39.178Z,1.88
2023-04-26T11:27:10.276Z,1.77
2023-04-26T11:29:37.292Z,2.05
2023-04-26T11:32:04.365Z,2.50
2023-04-26T11:34:39.386Z,1.85
2023-04-26T11:37:08.635Z,2.08
2023-04-26T11:39:37.026Z,1.77
2023-04-26T11:42:11.960Z,1.85
2023-04-26T11:44:40.728Z,2.10
2023-04-26T11:47:10.376Z,2.13
2023-04-26T11:49:37.840Z,1.92
2023-04-26T11:52:06.073Z,2.35
2023-04-26T11:54:35.101Z,2.10
2023-04-26T11:57:14.721Z,1.95
2023-04-26T11:59:48.663Z,2.00
2023-04-26T12:02:15.329Z,2.28
2023-04-26T12:04:42.511Z,2.13
2023-04-26T12:07:09.688Z,2.17
2023-04-26T12:09:42.658Z,2.05
2023-04-26T12:12:09.426Z,2.30
2023-04-26T12:14:36.211Z,2.00
2023-04-26T12:17:04.489Z,2.13
2023-04-26T12:19:38.622Z,2.50
2023-04-26T12:22:07.102Z,2.58
2023-04-26T12:24:36.771Z,2.58
2023-04-26T12:27:07.430Z,2.17
2023-04-26T12:29:34.399Z,1.80
2023-04-26T12:32:04.393Z,2.35
2023-04-26T12:34:33.384Z,2.47
2023-04-26T12:36:59.964Z,3.30
2023-04-26T12:39:28.763Z,2.50
2023-04-26T12:41:57.689Z,4.15
2023-04-26T12:44:24.427Z,2.65
2023-04-26T12:46:51.447Z,2.70
2023-04-26T12:49:18.243Z,2.70
2023-04-26T12:51:44.814Z,2.40
2023-04-26T12:54:11.740Z,2.65
2023-04-26T12:56:44.369Z,2.63
2023-04-26T12:59:11.148Z,2.20
2023-04-26T13:01:37.773Z,2.40
2023-04-26T13:04:05.969Z,2.80
2023-04-26T13:06:33.301Z,3.00
2023-04-26T13:09:00.143Z,3.05
2023-04-26T13:11:29.064Z,2.70
2023-04-26T13:13:55.694Z,2.67
2023-04-26T13:16:24.609Z,2.50
2023-04-26T13:18:51.424Z,2.95
2023-04-26T13:21:20.286Z,2.80
2023-04-26T13:23:47.653Z,2.90
2023-04-26T13:26:15.163Z,2.55
2023-04-26T13:28:41.873Z,2.70
2023-04-26T13:31:08.503Z,2.50
2023-04-26T13:33:35.125Z,2.60
2023-04-26T13:36:01.775Z,2.67
2023-04-26T13:38:32.725Z,2.70
2023-04-26T13:40:59.570Z,2.65
2023-04-26T13:43:26.431Z,3.28
2023-04-26T13:45:55.767Z,2.53
2023-04-26T13:48:22.429Z,2.50
2023-04-26T13:50:49.040Z,2.33
2023-04-26T13:53:15.656Z,2.60
2023-04-26T13:55:42.505Z,2.50
2023-04-26T13:58:11.578Z,2.95
2023-04-26T14:00:40.658Z,2.42
2023-04-26T14:03:09.809Z,2.40
2023-04-26T14:05:36.674Z,2.20
2023-04-26T14:08:03.371Z,5.40
2023-04-26T14:10:32.955Z,3.40
2023-04-26T14:12:59.553Z,3.50
2023-04-26T14:15:30.958Z,2.63
2023-04-26T14:17:57.637Z,2.38
2023-04-26T14:20:24.268Z,1.92
2023-04-26T14:22:53.109Z,3.03
2023-04-26T14:25:20.110Z,2.80
2023-04-26T14:27:48.889Z,4.05
2023-04-26T14:30:15.697Z,2.55
2023-04-26T14:32:45.496Z,2.28
2023-04-26T14:35:14.623Z,2.58
2023-04-26T14:37:41.177Z,2.17
2023-04-26T14:40:08.533Z,2.60
2023-04-26T14:42:35.892Z,2.67
2023-04-26T14:45:04.940Z,2.33
2023-04-26T14:47:34.619Z,2.78
2023-04-26T14:50:01.437Z,2.30
2023-04-26T14:52:29.107Z,2.17
2023-04-26T14:54:55.762Z,2.00
2023-04-26T14:57:24.855Z,2.33
2023-04-26T14:59:51.440Z,2.50
2023-04-26T15:02:18.132Z,2.30
2023-04-26T15:04:47.918Z,2.13
2023-04-26T15:07:28.714Z,2.22
2023-04-26T15:10:01.799Z,2.63
2023-04-26T15:12:28.866Z,2.10
2023-04-26T15:14:56.275Z,2.40
2023-04-26T15:17:22.957Z,2.40
2023-04-26T15:19:51.909Z,2.75
2023-04-26T15:22:23.468Z,2.63
2023-04-26T15:24:51.147Z,2.90
2023-04-26T15:27:17.905Z,2.92
2023-04-26T15:29:44.641Z,2.80
2023-04-26T15:32:13.713Z,6.78
2023-04-26T15:34:43.516Z,3.35
2023-04-26T15:37:13.158Z,2.95
2023-04-26T15:39:39.797Z,3.20
2023-04-26T15:42:06.624Z,3.20
2023-04-26T15:44:33.474Z,2.50
2023-04-26T15:47:02.595Z,2.30
2023-04-26T15:49:31.823Z,2.78
2023-04-26T15:51:58.710Z,2.20
2023-04-26T15:54:26.508Z,2.22
2023-04-26T15:56:53.560Z,2.55
2023-04-26T15:59:20.338Z,1.90
2023-04-26T16:01:47.026Z,2.47
2023-04-26T16:04:14.251Z,2.60
2023-04-26T16:06:41.248Z,2.70
2023-04-26T16:09:23.947Z,2.70
2023-04-26T16:11:52.308Z,3.10
2023-04-26T16:14:18.979Z,2.10
2023-04-26T16:16:46.224Z,2.50
2023-04-26T16:19:13.022Z,2.50
2023-04-26T16:21:40.845Z,3.10
2023-04-26T16:24:11.625Z,2.15
2023-04-26T16:26:38.440Z,2.35
2023-04-26T16:29:07.637Z,2.70
2023-04-26T16:31:36.836Z,1.92
2023-04-26T16:34:03.457Z,2.63
2023-04-26T16:36:33.005Z,2.75
2023-04-26T16:39:02.070Z,2.50
2023-04-26T16:41:29.075Z,2.80
2023-04-26T16:43:56.094Z,2.20
2023-04-26T16:46:25.101Z,2.22
2023-04-26T16:48:52.081Z,2.30
2023-04-26T16:51:18.698Z,2.38
2023-04-26T16:53:47.329Z,2.50
2023-04-26T16:56:13.900Z,2.78
2023-04-26T16:58:40.477Z,2.90
2023-04-26T17:01:09.430Z,2.65
2023-04-26T17:03:38.567Z,2.47
2023-04-26T17:06:06.955Z,2.80
2023-04-26T17:08:33.678Z,2.50
2023-04-26T17:11:00.235Z,3.30
2023-04-26T17:13:29.466Z,2.97
2023-04-26T17:15:59.419Z,2.58
2023-04-26T17:18:26.166Z,2.90
2023-04-26T17:20:57.776Z,2.97
2023-04-26T17:23:24.739Z,2.97
2023-04-26T17:25:56.070Z,4.18
2023-04-26T17:28:22.676Z,4.05
2023-04-26T17:30:49.273Z,3.30
2023-04-26T17:33:15.908Z,2.75
2023-04-26T17:35:42.497Z,2.55
2023-04-26T17:38:09.152Z,3.70
2023-04-26T17:40:38.438Z,2.60
2023-04-26T17:43:05.017Z,3.03
2023-04-26T17:45:31.740Z,3.35
2023-04-26T17:47:58.491Z,2.92
2023-04-26T17:50:25.613Z,2.85
2023-04-26T17:52:52.230Z,3.20
2023-04-26T17:55:18.940Z,2.83
2023-04-26T17:57:45.529Z,2.78
2023-04-26T18:00:15.796Z,3.28
2023-04-26T18:02:43.197Z,3.47
2023-04-26T18:05:10.272Z,3.03
2023-04-26T18:07:36.978Z,3.55
2023-04-26T18:10:04.254Z,4.32
2023-04-26T18:12:32.012Z,3.47
2023-04-26T18:14:58.977Z,3.22
2023-04-26T18:17:25.813Z,3.60
2023-04-26T18:19:52.623Z,3.53
2023-04-26T18:22:21.553Z,3.20
2023-04-26T18:24:48.160Z,4.30
2023-04-26T18:27:15.124Z,4.20
2023-04-26T18:29:43.217Z,4.15
2023-04-26T18:32:10.949Z,4.60
2023-04-26T18:34:40.234Z,3.97
2023-04-26T18:37:07.860Z,4.18
2023-04-26T18:39:36.696Z,3.53
2023-04-26T18:42:03.932Z,3.70
2023-04-26T18:44:30.672Z,3.53
2023-04-26T18:46:57.300Z,3.47
2023-04-26T18:49:26.368Z,3.95
2023-04-26T18:51:57.343Z,3.55
2023-04-26T18:54:26.753Z,3.20
2023-04-26T18:56:54.112Z,3.35
2023-04-26T18:59:20.927Z,3.85
2023-04-26T19:01:49.310Z,3.90
2023-04-26T19:04:16.334Z,4.30
2023-04-26T19:06:43.029Z,4.95
2023-04-26T19:09:11.903Z,4.47
2023-04-26T19:11:38.841Z,4.25
2023-04-26T19:14:05.748Z,3.83
2023-04-26T19:16:32.433Z,3.55
2023-04-26T19:18:59.210Z,3.35
2023-04-26T19:21:28.046Z,3.80
2023-04-26T19:23:56.692Z,3.40
2023-04-26T19:26:23.315Z,3.53
2023-04-26T19:28:49.955Z,3.47
2023-04-26T19:31:19.872Z,3.60
2023-04-26T19:33:46.523Z,3.40
2023-04-26T19:36:13.148Z,3.45
2023-04-26T19:38:39.812Z,3.22
2023-04-26T19:41:06.433Z,3.70
2023-04-26T19:43:36.126Z,3.67
2023-04-26T19:46:11.571Z,2.90
2023-04-26T19:48:41.193Z,2.78
2023-04-26T19:51:07.746Z,2.92
2023-04-26T19:53:35.294Z,3.30
2023-04-26T19:56:04.469Z,3.08
2023-04-26T19:58:32.444Z,3.03
2023-04-26T20:00:59.040Z,3.10
2023-04-26T20:03:26.108Z,3.63
2023-04-26T20:05:55.134Z,3.97
2023-04-26T20:08:24.057Z,3.72
2023-04-26T20:10:51.150Z,3.55
2023-04-26T20:13:18.066Z,2.95
2023-04-26T20:15:45.323Z,3.80
2023-04-26T20:18:16.951Z,3.45
2023-04-26T20:20:44.407Z,3.35
2023-04-26T20:23:11.657Z,3.88
2023-04-26T20:25:41.151Z,3.97
2023-04-26T20:28:08.169Z,4.55
2023-04-26T20:30:35.440Z,4.22
2023-04-26T20:33:04.578Z,3.92
2023-04-26T20:35:31.604Z,4.43
2023-04-26T20:37:58.675Z,3.97
2023-04-26T20:40:26.449Z,4.75
2023-04-26T20:42:53.751Z,5.60
2023-04-26T20:45:20.804Z,6.18
2023-04-26T20:47:48.027Z,6.20
2023-04-26T20:50:15.186Z,6.90
2023-04-26T20:52:46.693Z,6.65
2023-04-26T20:55:14.042Z,6.00
2023-04-26T20:57:41.938Z,4.43
2023-04-26T21:00:10.793Z,5.78
2023-04-26T21:02:41.136Z,7.30
2023-04-26T21:05:10.829Z,7.57
2023-04-26T21:07:37.776Z,6.03
2023-04-26T21:10:07.846Z,6.88
2023-04-26T21:12:37.704Z,6.68
2023-04-26T21:15:05.394Z,7.25
2023-04-26T21:17:35.535Z,7.43
2023-04-26T21:20:05.317Z,7.72
2023-04-26T21:22:32.482Z,7.85
2023-04-26T21:25:00.023Z,7.25
2023-04-26T21:27:27.206Z,7.15
2023-04-26T21:30:05.167Z,6.60
2023-04-26T21:32:32.208Z,5.80
2023-04-26T21:34:59.489Z,5.25
2023-04-26T21:37:26.505Z,4.85
2023-04-26T21:39:57.277Z,6.85
2023-04-26T21:42:25.199Z,6.38
2023-04-26T21:44:52.191Z,6.88
2023-04-26T21:47:20.110Z,6.25
2023-04-26T21:49:47.049Z,6.18
2023-04-26T21:52:14.096Z,6.85
2023-04-26T21:54:41.307Z,8.55
2023-04-26T21:57:15.527Z,9.18
2023-04-26T21:59:44.907Z,8.68
2023-04-26T22:02:11.933Z,7.05
2023-04-26T22:04:40.140Z,6.75
2023-04-26T22:07:11.022Z,6.35
2023-04-26T22:09:38.184Z,5.90
2023-04-26T22:12:07.386Z,5.00
2023-04-26T22:14:34.416Z,4.97
2023-04-26T22:17:02.329Z,7.03
2023-04-26T22:19:31.672Z,8.55
2023-04-26T22:22:01.410Z,9.83
2023-04-26T22:24:28.436Z,9.05
2023-04-26T22:26:55.289Z,9.10
2023-04-26T22:29:22.201Z,11.10
2023-04-26T22:31:49.112Z,11.05
2023-04-26T22:34:23.736Z,13.38
2023-04-26T22:36:50.592Z,19.23
2023-04-26T22:39:17.452Z,20.30
2023-04-26T22:41:44.288Z,23.23
2023-04-26T22:44:11.501Z,24.37
2023-04-26T22:46:38.253Z,24.73
2023-04-26T22:49:05.164Z,20.87
2023-04-26T22:51:32.629Z,21.00
2023-04-26T22:54:01.060Z,18.53
2023-04-26T22:56:27.982Z,13.63
2023-04-26T22:58:54.735Z,12.97
2023-04-26T23:01:21.738Z,12.23
2023-04-26T23:03:48.725Z,12.80
2023-04-26T23:06:17.822Z,12.13
2023-04-26T23:08:47.407Z,9.20
2023-04-26T23:11:14.391Z,9.50
2023-04-26T23:13:41.438Z,10.43
2023-04-26T23:16:11.563Z,11.70
2023-04-26T23:18:38.622Z,12.07
2023-04-26T23:21:11.570Z,11.47
2023-04-26T23:23:38.725Z,11.77
2023-04-26T23:26:08.811Z,10.73
2023-04-26T23:28:35.701Z,8.50
2023-04-26T23:31:02.670Z,8.60
2023-04-26T23:33:30.005Z,7.50
2023-04-26T23:35:59.474Z,6.70
2023-04-26T23:38:26.624Z,6.00
2023-04-26T23:40:53.912Z,6.27
2023-04-26T23:43:20.921Z,8.33
2023-04-26T23:45:53.085Z,9.53
2023-04-26T23:48:22.595Z,9.17
2023-04-26T23:50:49.643Z,8.47
2023-04-26T23:53:19.132Z,6.60
2023-04-26T23:55:46.433Z,7.40
2023-04-26T23:58:13.522Z,7.23
